Time;durP1;ratioP1;P1;durP2;ratioP2;P2;SDS_P1;SDS_P2;PMS_P1;PMS_P2;Temp;Humidity;BMP_temperature;BMP_pressure;BME280_temperature;BME280_humidity;BME280_pressure;Samples;Min_cycle;Max_cycle;Signal;HPM_P1;HPM_P2
2022/03/15 00:02:18;;;;;;;10.45;3.22;;;;;;;8.48;52.14;97599.03;5025976;28;20130;-65
2022/03/15 00:04:44;;;;;;;9.32;3.10;;;;;;;8.47;52.18;97599.38;5034657;28;20460;-65
2022/03/15 00:07:15;;;;;;;12.18;3.42;;;;;;;8.55;51.83;97595.78;5042747;28;20064;-65
2022/03/15 00:09:42;;;;;;;10.40;2.67;;;;;;;8.64;52.33;97592.97;5033842;28;20041;-64
2022/03/15 00:12:08;;;;;;;19.65;5.00;;;;;;;8.68;52.15;97600.19;5018031;28;20036;-64
2022/03/15 00:14:36;;;;;;;17.55;5.80;;;;;;;8.73;51.76;97597.28;5039675;28;20037;-65
2022/03/15 00:17:04;;;;;;;4.88;1.90;;;;;;;8.50;51.70;97593.22;5036146;28;20049;-65
2022/03/15 00:19:29;;;;;;;4.25;2.15;;;;;;;8.49;52.78;97591.66;5032479;28;20079;-65
2022/03/15 00:21:55;;;;;;;6.07;2.67;;;;;;;8.40;52.66;97592.47;5040289;28;20048;-64
2022/03/15 00:24:22;;;;;;;10.90;2.40;;;;;;;8.28;52.91;97597.03;5036060;28;20397;-64
2022/03/15 00:26:48;;;;;;;6.43;2.00;;;;;;;8.19;54.15;97583.44;5037962;28;20045;-65
2022/03/15 00:29:16;;;;;;;5.07;2.22;;;;;;;7.97;56.54;97592.69;5034826;28;20045;-65
2022/03/15 00:31:44;;;;;;;5.38;2.53;;;;;;;7.76;58.01;97589.88;5038585;28;20131;-65
2022/03/15 00:34:10;;;;;;;4.85;2.63;;;;;;;7.62;59.25;97584.63;5027799;28;20436;-64
2022/03/15 00:36:37;;;;;;;5.75;2.95;;;;;;;7.55;59.87;97581.63;5038758;28;20098;-65
2022/03/15 00:39:07;;;;;;;4.95;2.60;;;;;;;7.41;60.67;97579.88;5021238;28;20449;-65
2022/03/15 00:41:32;;;;;;;5.18;2.13;;;;;;;7.18;61.58;97581.97;5027454;28;20055;-65
2022/03/15 00:43:58;;;;;;;4.68;2.10;;;;;;;7.05;62.35;97591.16;5011059;28;20049;-64
2022/03/15 00:46:23;;;;;;;6.25;2.90;;;;;;;7.03;62.24;97574.31;5026374;28;20021;-64
2022/03/15 00:48:49;;;;;;;5.43;2.67;;;;;;;6.91;62.85;97580.41;5038563;28;20547;-64
2022/03/15 00:51:14;;;;;;;16.08;4.82;;;;;;;7.02;62.76;97580.88;5036634;28;20038;-68
2022/03/15 00:53:40;;;;;;;6.45;2.85;;;;;;;7.11;62.92;97578.94;5035828;28;20026;-67
2022/03/15 00:56:07;;;;;;;5.30;2.42;;;;;;;7.16;63.68;97581.50;5012501;28;20033;-68
2022/03/15 00:58:32;;;;;;;5.85;2.40;;;;;;;7.26;62.79;97575.72;5038508;28;20172;-68
2022/03/15 01:00:57;;;;;;;6.47;2.65;;;;;;;7.22;63.22;97574.78;5021946;28;20053;-68
2022/03/15 01:03:23;;;;;;;11.20;3.72;;;;;;;7.21;64.03;97572.38;5019350;28;20079;-68
2022/03/15 01:05:48;;;;;;;6.05;3.00;;;;;;;7.24;66.89;97571.75;5034366;28;20029;-68
2022/03/15 01:08:14;;;;;;;29.67;8.73;;;;;;;7.23;66.75;97568.19;5033480;28;20022;-68
2022/03/15 01:10:41;;;;;;;9.15;4.38;;;;;;;7.13;66.11;97565.00;5016529;28;20064;-67
2022/03/15 01:13:06;;;;;;;12.25;4.05;;;;;;;7.03;65.63;97560.72;5022332;28;20112;-67
2022/03/15 01:15:41;;;;;;;12.52;3.53;;;;;;;6.93;66.95;97556.38;5015462;28;20125;-68
2022/03/15 01:18:07;;;;;;;9.10;3.22;;;;;;;6.76;68.14;97553.69;5013544;28;20376;-67
2022/03/15 01:20:32;;;;;;;6.80;3.10;;;;;;;6.70;68.31;97553.84;4997176;28;20037;-68
2022/03/15 01:22:58;;;;;;;7.50;3.40;;;;;;;6.68;68.76;97544.38;5014407;28;20034;-67
2022/03/15 01:25:23;;;;;;;5.63;3.13;;;;;;;6.67;68.04;97545.50;5014738;28;20030;-68
2022/03/15 01:27:49;;;;;;;7.30;3.10;;;;;;;6.61;68.00;97553.03;5013827;28;20030;-68
2022/03/15 01:30:14;;;;;;;5.55;3.22;;;;;;;6.57;68.61;97549.34;5013558;28;20494;-67
2022/03/15 01:32:40;;;;;;;8.23;3.40;;;;;;;6.39;72.02;97553.97;5015941;28;20030;-67
2022/03/15 01:35:06;;;;;;;7.57;3.47;;;;;;;6.29;73.03;97562.44;5014203;28;20630;-67
2022/03/15 01:37:32;;;;;;;7.68;3.47;;;;;;;6.34;73.24;97564.19;5009860;28;20034;-67
2022/03/15 01:39:57;;;;;;;5.03;3.20;;;;;;;6.33;72.81;97563.41;4990083;28;20053;-67
2022/03/15 01:42:22;;;;;;;9.15;2.90;;;;;;;6.26;73.83;97563.06;5015160;28;20030;-68
2022/03/15 01:44:49;;;;;;;5.50;3.10;;;;;;;6.18;74.05;97558.44;5014993;28;20064;-67
2022/03/15 01:47:15;;;;;;;6.55;3.55;;;;;;;6.35;75.16;97561.16;5018976;28;20049;-67
2022/03/15 01:49:41;;;;;;;7.88;3.78;;;;;;;6.32;75.25;97567.25;5015828;28;20474;-67
2022/03/15 01:52:12;;;;;;;7.88;3.35;;;;;;;6.24;76.32;97568.03;4996487;28;20037;-67
2022/03/15 01:54:40;;;;;;;7.47;3.72;;;;;;;6.26;76.38;97563.06;5014174;28;20042;-67
2022/03/15 01:57:07;;;;;;;5.65;3.45;;;;;;;6.17;76.77;97556.81;5013709;28;20030;-67
2022/03/15 01:59:34;;;;;;;6.38;3.25;;;;;;;6.11;77.37;97564.31;4996438;28;20030;-67
2022/03/15 02:01:59;;;;;;;8.82;4.30;;;;;;;5.93;79.01;97560.72;4995221;28;20148;-69
2022/03/15 02:04:25;;;;;;;6.40;3.42;;;;;;;5.73;80.63;97556.66;5013726;28;20038;-67
2022/03/15 02:07:07;;;;;;;10.60;3.80;;;;;;;5.62;81.43;97547.97;5013267;28;20037;-67
2022/03/15 02:09:32;;;;;;;6.65;3.70;;;;;;;5.62;81.14;97552.59;4995492;28;20022;-69
2022/03/15 02:11:58;;;;;;;11.15;3.80;;;;;;;5.74;80.14;97559.06;5013501;28;20068;-68
2022/03/15 02:14:25;;;;;;;5.75;3.30;;;;;;;5.72;79.96;97566.69;5013512;28;20037;-67
2022/03/15 02:16:50;;;;;;;12.45;4.22;;;;;;;5.70;80.54;97571.66;5013337;28;20033;-67
2022/03/15 02:19:16;;;;;;;6.10;3.42;;;;;;;5.85;80.08;97572.34;5013467;28;20033;-67
2022/03/15 02:21:41;;;;;;;8.15;3.58;;;;;;;5.74;78.79;97566.41;4995421;28;20750;-67
2022/03/15 02:24:07;;;;;;;7.30;3.50;;;;;;;5.68;79.29;97568.44;4995699;28;20045;-68
2022/03/15 02:26:32;;;;;;;7.22;3.38;;;;;;;5.63;78.92;97568.59;5013123;28;20044;-67
2022/03/15 02:28:58;;;;;;;6.13;2.70;;;;;;;5.61;79.31;97578.97;5013341;28;20061;-67
2022/03/15 02:31:24;;;;;;;8.80;3.75;;;;;;;5.59;79.12;97585.84;5013180;28;20109;-67
2022/03/15 02:33:50;;;;;;;6.75;3.33;;;;;;;5.62;79.81;97585.19;5024898;28;20033;-68
2022/03/15 02:36:16;;;;;;;6.32;3.30;;;;;;;5.69;79.11;97593.72;5031460;28;20120;-68
2022/03/15 02:38:45;;;;;;;7.03;3.55;;;;;;;5.61;79.11;97594.47;5015121;28;20037;-68
2022/03/15 02:41:11;;;;;;;9.10;3.30;;;;;;;5.45;80.65;97588.63;5031243;28;20075;-68
2022/03/15 02:43:37;;;;;;;10.30;3.58;;;;;;;5.40;80.49;97588.75;4998388;28;20095;-67
2022/03/15 02:46:02;;;;;;;8.15;3.88;;;;;;;5.48;80.15;97599.69;5014449;28;20033;-67
2022/03/15 02:48:28;;;;;;;6.60;3.35;;;;;;;5.53;79.76;97598.75;5032649;28;20044;-67
2022/03/15 02:50:58;;;;;;;5.13;2.92;;;;;;;5.58;79.43;97605.97;5032472;28;20160;-67
2022/03/15 02:53:24;;;;;;;10.90;3.60;;;;;;;5.45;80.11;97607.66;4998524;28;20395;-69
2022/03/15 02:55:51;;;;;;;7.10;3.17;;;;;;;5.50;80.05;97605.59;5014744;28;20512;-67
2022/03/15 02:58:18;;;;;;;8.38;2.65;;;;;;;5.57;79.40;97605.19;5035319;28;20154;-67
2022/03/15 03:00:44;;;;;;;4.80;3.15;;;;;;;5.57;78.04;97602.47;5041955;28;20033;-67
2022/03/15 03:03:09;;;;;;;6.05;2.80;;;;;;;5.61;77.62;97603.44;5020929;28;20033;-68
2022/03/15 03:05:35;;;;;;;5.35;3.00;;;;;;;5.35;78.54;97612.25;5040687;28;20108;-67
2022/03/15 03:08:03;;;;;;;7.28;2.90;;;;;;;5.48;78.09;97631.50;5054882;28;20028;-67
2022/03/15 03:10:28;;;;;;;5.72;2.83;;;;;;;5.36;77.63;97634.75;5021422;28;20036;-67
2022/03/15 03:12:54;;;;;;;5.68;2.67;;;;;;;5.34;77.74;97645.94;5027181;28;20029;-67
2022/03/15 03:15:20;;;;;;;4.75;2.70;;;;;;;5.26;77.79;97643.97;5051728;28;20029;-67
2022/03/15 03:17:46;;;;;;;5.60;3.13;;;;;;;5.26;77.76;97638.53;5031859;28;20036;-67
2022/03/15 03:20:13;;;;;;;4.45;2.45;;;;;;;5.43;75.84;97643.28;5050617;28;20385;-67
2022/03/15 03:22:39;;;;;;;7.07;3.10;;;;;;;5.54;74.76;97632.97;5052437;28;20436;-67
2022/03/15 03:25:05;;;;;;;10.23;3.03;;;;;;;5.69;74.21;97637.19;5044031;28;20033;-67
2022/03/15 03:27:31;;;;;;;4.28;2.55;;;;;;;5.67;73.77;97623.94;5036815;28;20112;-67
2022/03/15 03:29:58;;;;;;;9.10;2.78;;;;;;;5.73;74.29;97630.03;5052455;28;20159;-67
2022/03/15 03:32:27;;;;;;;10.10;2.72;;;;;;;5.96;73.16;97628.09;5063483;28;20032;-66
2022/03/15 03:34:54;;;;;;;7.55;2.50;;;;;;;6.06;72.26;97625.09;5066333;28;20033;-67
2022/03/15 03:37:20;;;;;;;5.57;2.95;;;;;;;6.08;72.25;97622.84;5054330;28;20066;-66
2022/03/15 03:39:46;;;;;;;4.32;2.50;;;;;;;6.14;71.90;97609.94;5047717;28;20057;-66
2022/03/15 03:42:12;;;;;;;6.10;2.63;;;;;;;6.11;71.20;97605.13;5050539;28;20104;-66
2022/03/15 03:44:40;;;;;;;5.85;2.55;;;;;;;6.17;71.13;97613.94;5035152;28;20029;-66
2022/03/15 03:47:06;;;;;;;7.88;2.53;;;;;;;6.09;70.78;97615.50;5051704;28;20033;-67
2022/03/15 03:49:32;;;;;;;7.78;3.10;;;;;;;6.17;71.11;97609.28;5026042;28;20021;-67
2022/03/15 03:51:58;;;;;;;6.57;2.85;;;;;;;6.18;70.94;97608.19;5048513;28;20029;-67
2022/03/15 03:54:24;;;;;;;5.13;2.53;;;;;;;6.21;71.28;97612.19;5029490;28;20025;-68
2022/03/15 03:56:50;;;;;;;8.25;2.80;;;;;;;6.24;70.97;97609.63;5051784;28;20036;-66
2022/03/15 03:59:15;;;;;;;7.97;3.70;;;;;;;6.26;70.22;97612.81;5044888;28;20025;-67
2022/03/15 04:01:41;;;;;;;6.32;3.25;;;;;;;6.27;70.39;97616.38;5075787;23;20331;-67
2022/03/15 04:04:06;;;;;;;7.43;3.75;;;;;;;6.34;69.43;97619.44;5042494;28;20603;-68
2022/03/15 04:06:32;;;;;;;9.05;2.83;;;;;;;6.46;68.59;97621.53;5050459;28;20120;-70
2022/03/15 04:08:59;;;;;;;6.88;3.00;;;;;;;6.28;69.92;97629.66;5057887;28;20032;-69
2022/03/15 04:11:25;;;;;;;5.03;2.80;;;;;;;6.20;70.20;97635.88;5062462;28;20024;-68
2022/03/15 04:13:51;;;;;;;7.00;3.25;;;;;;;6.07;71.26;97632.16;5070523;28;20044;-64
2022/03/15 04:16:17;;;;;;;10.05;3.13;;;;;;;6.22;70.89;97641.00;5070295;28;20033;-65
2022/03/15 04:18:43;;;;;;;8.20;3.67;;;;;;;6.26;70.16;97640.03;5070854;28;20052;-64
2022/03/15 04:21:08;;;;;;;12.23;3.00;;;;;;;6.19;70.58;97638.91;5070606;28;20033;-65
2022/03/15 04:23:34;;;;;;;9.50;3.10;;;;;;;5.94;72.03;97647.41;5059198;28;20055;-66
2022/03/15 04:26:00;;;;;;;6.50;3.03;;;;;;;5.79;73.22;97647.81;5064305;28;20060;-66
2022/03/15 04:28:26;;;;;;;5.45;2.90;;;;;;;5.79;74.42;97649.72;5074237;28;20392;-66
2022/03/15 04:30:52;;;;;;;4.40;2.50;;;;;;;5.86;74.70;97648.16;5056156;28;20086;-65
2022/03/15 04:33:17;;;;;;;5.82;2.90;;;;;;;5.99;74.33;97645.69;5074317;28;20032;-65
2022/03/15 04:35:43;;;;;;;8.57;2.80;;;;;;;6.12;73.23;97647.50;5072908;28;20120;-66
2022/03/15 04:38:08;;;;;;;5.88;2.70;;;;;;;6.08;73.45;97651.97;5065254;28;20523;-67
2022/03/15 04:40:34;;;;;;;4.78;2.88;;;;;;;5.95;75.02;97648.22;5065702;28;20025;-69
2022/03/15 04:43:01;;;;;;;4.68;3.15;;;;;;;5.80;76.54;97646.72;5073893;28;20037;-65
2022/03/15 04:45:27;;;;;;;7.03;3.15;;;;;;;5.69;77.36;97650.78;5073692;28;20033;-65
2022/03/15 04:47:53;;;;;;;9.70;3.33;;;;;;;5.77;77.66;97635.66;5073826;28;20492;-66
2022/03/15 04:50:18;;;;;;;6.55;2.85;;;;;;;5.90;78.07;97638.25;5055859;28;20024;-65
2022/03/15 04:52:44;;;;;;;8.30;3.90;;;;;;;6.07;78.17;97637.59;5065042;28;20029;-65
2022/03/15 04:55:09;;;;;;;8.95;3.58;;;;;;;6.16;77.66;97639.50;5063333;28;20090;-68
2022/03/15 04:57:35;;;;;;;6.93;3.80;;;;;;;6.09;77.03;97642.72;5073718;28;20202;-65
2022/03/15 05:00:01;;;;;;;6.57;3.53;;;;;;;6.08;78.07;97638.38;5073235;28;20025;-67
2022/03/15 05:02:26;;;;;;;7.30;3.40;;;;;;;6.06;78.69;97632.44;5073409;28;20354;-65
2022/03/15 05:04:52;;;;;;;7.40;3.45;;;;;;;6.03;78.91;97630.34;5073559;28;20024;-65
2022/03/15 05:07:17;;;;;;;9.32;3.70;;;;;;;5.93;79.55;97639.56;5067788;28;20064;-66
2022/03/15 05:12:28;;;;;;;15.48;4.30;;;;;;;5.83;81.32;97627.03;5065333;28;20413;-65
2022/03/15 05:14:54;;;;;;;6.07;3.00;;;;;;;5.95;nan;97626.47;5053546;28;20385;-64
2022/03/15 05:17:19;;;;;;;9.13;4.53;;;;;;;6.11;81.78;97632.31;5053110;28;20033;-65
2022/03/15 05:19:46;;;;;;;7.85;3.63;;;;;;;6.22;78.81;97632.84;5053265;28;20052;-67
2022/03/15 05:22:12;;;;;;;6.07;3.13;;;;;;;6.25;78.32;97637.66;5053221;28;20124;-65
2022/03/15 05:24:38;;;;;;;7.70;3.33;;;;;;;6.24;78.54;97641.47;5061164;28;20100;-65
2022/03/15 05:27:03;;;;;;;6.55;3.50;;;;;;;6.28;78.72;97650.59;5053052;28;20037;-68
2022/03/15 05:29:28;;;;;;;5.93;3.50;;;;;;;6.18;78.81;97651.69;5052785;28;20021;-65
2022/03/15 05:31:54;;;;;;;9.30;3.67;;;;;;;6.10;79.38;97642.41;5059861;28;20037;-65
2022/03/15 05:34:19;;;;;;;8.95;3.55;;;;;;;6.04;81.10;97642.84;5046350;28;20107;-67
2022/03/15 05:36:45;;;;;;;11.40;3.72;;;;;;;5.91;82.76;97636.38;5070932;28;20090;-66
2022/03/15 05:39:11;;;;;;;10.68;3.70;;;;;;;5.67;87.66;97639.44;5061177;28;20036;-65
2022/03/15 05:41:36;;;;;;;10.93;4.50;;;;;;;5.47;89.27;97643.47;5066712;28;20556;-64
2022/03/15 05:44:01;;;;;;;8.68;3.70;;;;;;;5.45;91.21;97646.50;5080420;28;20036;-65
2022/03/15 05:46:27;;;;;;;10.27;4.05;;;;;;;5.46;91.10;97650.03;5082830;28;20234;-66
2022/03/15 05:48:52;;;;;;;11.43;4.30;;;;;;;5.42;92.77;97651.75;5079076;28;20062;-67
2022/03/15 05:51:18;;;;;;;8.38;4.35;;;;;;;5.41;93.70;97652.88;5085067;28;20032;-68
2022/03/15 05:53:44;;;;;;;10.93;3.88;;;;;;;5.49;94.63;97658.38;5081042;28;20474;-68
2022/03/15 05:56:10;;;;;;;8.65;4.28;;;;;;;5.64;95.20;97656.38;5081924;28;20076;-65
2022/03/15 05:58:36;;;;;;;11.30;5.25;;;;;;;5.72;95.75;97658.31;5082253;28;20060;-65
2022/03/15 06:01:01;;;;;;;7.53;4.05;;;;;;;5.68;96.60;97669.03;5073572;28;20032;-65
2022/03/15 06:03:27;;;;;;;10.35;4.00;;;;;;;5.42;97.38;97662.59;5068093;28;20029;-65
2022/03/15 06:05:52;;;;;;;8.40;4.38;;;;;;;5.27;100.00;97658.34;5061397;28;20041;-67
2022/03/15 06:08:18;;;;;;;11.15;3.85;;;;;;;5.43;100.00;97650.63;5054270;28;20040;-63
2022/03/15 06:10:43;;;;;;;9.00;4.18;;;;;;;5.54;100.00;97632.97;5052551;28;20025;-64
2022/03/15 06:13:09;;;;;;;8.75;4.32;;;;;;;5.68;100.00;97641.84;5053352;28;20083;-69
2022/03/15 06:15:34;;;;;;;10.38;4.25;;;;;;;5.69;100.00;97640.75;5057048;28;20028;-66
2022/03/15 06:18:01;;;;;;;9.93;4.20;;;;;;;5.62;100.00;97639.56;5060335;28;20043;-65
2022/03/15 06:20:27;;;;;;;8.68;4.07;;;;;;;5.83;98.08;97646.06;5072094;28;20086;-67
2022/03/15 06:22:54;;;;;;;11.90;5.03;;;;;;;5.95;96.58;97650.94;5062883;28;20104;-66
2022/03/15 06:25:20;;;;;;;10.30;5.00;;;;;;;5.73;100.00;97660.75;5063195;28;20020;-66
2022/03/15 06:27:47;;;;;;;10.35;4.57;;;;;;;5.83;99.09;97658.88;5071939;28;20109;-66
2022/03/15 06:30:13;;;;;;;9.10;4.38;;;;;;;5.88;97.76;97667.69;5053700;28;20405;-65
2022/03/15 06:32:39;;;;;;;9.18;4.53;;;;;;;5.84;98.31;97665.91;5072019;28;20025;-64
2022/03/15 06:35:07;;;;;;;10.35;5.05;;;;;;;5.77;97.02;97671.00;5071704;28;20038;-65
2022/03/15 06:37:42;;;;;;;11.68;4.63;;;;;;;5.71;97.28;97673.03;5057307;28;20037;-65
2022/03/15 06:40:09;;;;;;;9.20;4.15;;;;;;;5.65;100.00;97682.44;5069339;28;20094;-64
2022/03/15 06:42:35;;;;;;;14.13;4.93;;;;;;;5.59;100.00;97673.59;5075564;28;20028;-66
2022/03/15 06:45:03;;;;;;;13.85;6.13;;;;;;;5.66;100.00;97678.59;5083157;28;20048;-67
2022/03/15 06:47:28;;;;;;;13.70;5.85;;;;;;;5.63;100.00;97676.50;5071065;28;20385;-65
2022/03/15 06:49:53;;;;;;;11.20;5.28;;;;;;;5.59;100.00;97673.59;5066885;28;20032;-68
2022/03/15 06:52:20;;;;;;;13.48;5.30;;;;;;;5.62;100.00;97669.44;5060749;28;20126;-64
2022/03/15 06:54:45;;;;;;;15.40;5.38;;;;;;;5.72;100.00;97675.44;5051773;28;20025;-64
2022/03/15 06:57:10;;;;;;;15.73;6.20;;;;;;;5.89;100.00;97674.75;5051225;28;20395;-65
2022/03/15 06:59:36;;;;;;;12.43;4.60;;;;;;;6.02;100.00;97681.22;5033387;28;20107;-67
2022/03/15 07:02:01;;;;;;;10.23;5.47;;;;;;;6.09;100.00;97687.03;5051237;28;20523;-66
2022/03/15 07:04:27;;;;;;;15.32;5.38;;;;;;;6.05;100.00;97677.06;5050392;28;20033;-65
2022/03/15 07:06:52;;;;;;;9.73;4.97;;;;;;;5.97;100.00;97678.63;5048117;28;20036;-66
2022/03/15 07:09:17;;;;;;;12.80;5.88;;;;;;;6.08;100.00;97679.97;5051863;28;20029;-65
2022/03/15 07:11:43;;;;;;;11.80;4.43;;;;;;;6.19;100.00;97677.78;5058914;28;20024;-65
2022/03/15 07:14:09;;;;;;;13.75;4.78;;;;;;;6.26;100.00;97666.44;5051075;28;20029;-66
2022/03/15 07:16:34;;;;;;;12.23;5.10;;;;;;;6.24;100.00;97674.91;5071234;28;20036;-64
2022/03/15 07:18:59;;;;;;;8.32;4.90;;;;;;;5.96;100.00;97670.78;5071175;28;20028;-66
2022/03/15 07:21:25;;;;;;;11.20;4.85;;;;;;;5.89;100.00;97655.72;5071144;28;20039;-66
2022/03/15 07:23:50;;;;;;;9.57;5.38;;;;;;;6.10;100.00;97650.56;5071324;28;20045;-68
2022/03/15 07:26:16;;;;;;;10.70;4.82;;;;;;;6.29;100.00;97646.78;5063920;28;20042;-65
2022/03/15 07:28:42;;;;;;;11.57;5.22;;;;;;;6.38;100.00;97653.06;5065139;28;20499;-65
2022/03/15 07:31:07;;;;;;;10.75;5.22;;;;;;;6.41;100.00;97654.31;5053070;28;20115;-66
2022/03/15 07:33:33;;;;;;;10.65;5.85;;;;;;;6.37;100.00;97666.97;5064559;28;20040;-65
2022/03/15 07:35:59;;;;;;;16.05;6.38;;;;;;;6.18;100.00;97675.41;5067469;28;20036;-69
2022/03/15 07:38:25;;;;;;;14.73;5.38;;;;;;;6.00;100.00;97667.16;5070501;28;20032;-65
2022/03/15 07:40:52;;;;;;;10.88;6.35;;;;;;;5.80;100.00;97673.06;5057638;28;20082;-65
2022/03/15 07:43:19;;;;;;;14.38;6.03;;;;;;;5.40;100.00;97664.84;5061718;28;20055;-67
2022/03/15 07:45:45;;;;;;;14.23;6.75;;;;;;;4.87;100.00;97669.84;5066695;28;20618;-65
2022/03/15 07:48:11;;;;;;;18.42;9.13;;;;;;;4.85;100.00;97658.50;5044692;28;20033;-65
2022/03/15 07:50:36;;;;;;;17.27;8.68;;;;;;;4.93;100.00;97655.06;5070875;28;20069;-65
2022/03/15 07:53:02;;;;;;;15.45;7.38;;;;;;;4.94;100.00;97653.16;5071029;28;20039;-66
2022/03/15 07:55:27;;;;;;;19.38;8.45;;;;;;;4.70;100.00;97656.94;5070917;28;20032;-67
2022/03/15 07:57:53;;;;;;;21.08;7.70;;;;;;;4.66;100.00;97655.91;5071014;28;20051;-65
2022/03/15 08:00:18;;;;;;;14.18;7.55;;;;;;;4.74;100.00;97660.63;5066117;28;20027;-66
2022/03/15 08:02:44;;;;;;;12.77;6.63;;;;;;;4.86;100.00;97657.41;5067226;28;20032;-68
2022/03/15 08:05:09;;;;;;;11.75;7.00;;;;;;;5.13;100.00;97655.69;5075472;28;20086;-65
2022/03/15 08:07:36;;;;;;;15.77;6.82;;;;;;;5.28;100.00;97660.78;5075306;28;20452;-68
2022/03/15 08:10:07;;;;;;;14.23;7.25;;;;;;;5.47;100.00;97663.28;5075484;28;20025;-65
2022/03/15 08:12:33;;;;;;;13.45;7.50;;;;;;;5.72;100.00;97670.00;5075789;28;20092;-66
2022/03/15 08:14:59;;;;;;;15.25;8.85;;;;;;;5.99;100.00;97683.78;5071326;28;20113;-69
2022/03/15 08:17:25;;;;;;;14.63;8.23;;;;;;;6.03;100.00;97676.59;5062706;28;20028;-67
2022/03/15 08:19:50;;;;;;;17.85;8.20;;;;;;;6.06;100.00;97667.81;5075652;28;20037;-68
2022/03/15 08:22:16;;;;;;;17.33;7.65;;;;;;;5.94;100.00;97662.91;5056377;28;20029;-65
2022/03/15 08:24:42;;;;;;;21.50;8.20;;;;;;;5.55;100.00;97661.75;5062500;28;20089;-68
2022/03/15 08:27:08;;;;;;;13.32;7.55;;;;;;;5.11;100.00;97652.47;5065178;28;20028;-66
2022/03/15 08:29:34;;;;;;;16.02;7.03;;;;;;;5.26;100.00;97662.19;5041924;28;20025;-65
2022/03/15 08:31:59;;;;;;;14.43;6.50;;;;;;;5.50;100.00;97649.09;5067606;28;20039;-66
2022/03/15 08:34:25;;;;;;;15.60;7.47;;;;;;;5.52;100.00;97660.44;5079723;28;20404;-69
2022/03/15 08:36:50;;;;;;;18.08;7.85;;;;;;;5.67;100.00;97656.56;5069743;28;20098;-66
2022/03/15 08:39:15;;;;;;;13.13;6.80;;;;;;;5.99;100.00;97640.25;5040734;28;20036;-67
2022/03/15 08:41:42;;;;;;;16.95;7.60;;;;;;;6.10;100.00;97645.13;5036326;28;20047;-67
2022/03/15 08:44:08;;;;;;;13.85;7.95;;;;;;;6.13;100.00;97635.53;5033140;28;20056;-66
2022/03/15 08:46:33;;;;;;;13.32;6.60;;;;;;;6.18;100.00;97638.09;5041243;28;20052;-67
2022/03/15 08:48:59;;;;;;;9.57;5.78;;;;;;;6.22;100.00;97646.44;5037257;28;20044;-66
2022/03/15 08:51:25;;;;;;;16.08;6.22;;;;;;;6.26;100.00;97652.84;5038453;28;20158;-66
2022/03/15 08:53:51;;;;;;;15.00;7.07;;;;;;;6.22;100.00;97652.66;5031073;28;20061;-65
2022/03/15 08:56:16;;;;;;;13.30;6.22;;;;;;;6.15;100.00;97655.03;5024585;28;20051;-65
2022/03/15 08:58:42;;;;;;;10.45;5.90;;;;;;;6.21;100.00;97644.81;5028731;28;20042;-66
2022/03/15 09:01:07;;;;;;;15.32;7.72;;;;;;;6.08;100.00;97636.44;5035168;28;20102;-67
2022/03/15 09:03:32;;;;;;;17.35;10.73;;;;;;;5.65;100.00;97639.72;5028803;28;20510;-66
2022/03/15 09:05:58;;;;;;;16.05;10.07;;;;;;;5.72;100.00;97636.59;5036096;28;20049;-67
2022/03/15 09:08:23;;;;;;;16.58;8.13;;;;;;;5.38;100.00;97631.75;5029548;28;20111;-68
2022/03/15 09:10:49;;;;;;;18.23;8.93;;;;;;;5.57;100.00;97647.84;5030332;28;20044;-67
2022/03/15 09:13:15;;;;;;;17.67;9.43;;;;;;;5.15;100.00;97605.41;5033593;28;20127;-65
2022/03/15 09:15:40;;;;;;;16.08;8.25;;;;;;;5.32;100.00;97629.16;5033556;28;20127;-66
2022/03/15 09:18:07;;;;;;;11.32;6.93;;;;;;;5.51;100.00;97609.94;5020805;28;20401;-65
2022/03/15 09:20:33;;;;;;;14.27;7.05;;;;;;;5.17;100.00;97605.88;5027968;28;20051;-65
2022/03/15 09:22:59;;;;;;;15.15;7.28;;;;;;;5.14;100.00;97598.34;5027207;28;20045;-63
2022/03/15 09:25:24;;;;;;;12.02;7.50;;;;;;;5.41;100.00;97603.97;5033582;28;20511;-72
2022/03/15 09:27:50;;;;;;;14.70;7.45;;;;;;;5.52;100.00;97603.38;5032860;28;20383;-66
2022/03/15 09:30:17;;;;;;;15.45;8.30;;;;;;;5.49;100.00;97586.91;5019621;28;20041;-67
2022/03/15 09:32:42;;;;;;;15.13;7.50;;;;;;;5.05;100.00;97573.06;5034791;28;20077;-65
2022/03/15 09:35:09;;;;;;;13.80;6.85;;;;;;;5.29;100.00;97594.44;5033022;28;20073;-64
2022/03/15 09:37:34;;;;;;;15.48;8.55;;;;;;;5.38;100.00;97569.25;5009698;28;20055;-65
2022/03/15 09:40:00;;;;;;;11.65;6.75;;;;;;;5.08;100.00;97566.22;5039048;28;20045;-67
2022/03/15 09:42:29;;;;;;;15.98;7.43;;;;;;;5.14;100.00;97567.69;5038875;28;20053;-66
2022/03/15 09:44:57;;;;;;;18.42;7.82;;;;;;;4.99;100.00;97552.59;5036142;28;20049;-64
2022/03/15 09:47:25;;;;;;;14.48;8.02;;;;;;;4.94;100.00;97544.56;5033671;28;20109;-64
2022/03/15 09:49:53;;;;;;;15.77;7.82;;;;;;;5.04;100.00;97548.91;5045881;28;20041;-63
2022/03/15 09:52:20;;;;;;;16.45;7.95;;;;;;;5.24;100.00;97544.88;5031764;28;20099;-60
2022/03/15 09:54:47;;;;;;;12.80;7.43;;;;;;;5.57;100.00;97548.09;5037603;28;20090;-69
2022/03/15 09:57:12;;;;;;;11.48;7.32;;;;;;;5.51;100.00;97543.91;5035212;28;20061;-66
2022/03/15 09:59:38;;;;;;;15.43;7.72;;;;;;;5.75;100.00;97549.78;5024632;28;20131;-67
2022/03/15 10:02:07;;;;;;;11.82;6.57;;;;;;;5.65;100.00;97541.88;5052464;23;20059;-66
2022/03/15 10:04:33;;;;;;;12.55;6.78;;;;;;;5.84;100.00;97544.38;5022546;28;20087;-69
2022/03/15 10:06:59;;;;;;;11.00;6.30;;;;;;;5.91;100.00;97544.72;5026046;28;20076;-68
2022/03/15 10:09:25;;;;;;;13.25;5.88;;;;;;;5.84;100.00;97543.56;5032355;28;20928;-68
2022/03/15 10:11:52;;;;;;;11.10;5.63;;;;;;;6.04;100.00;97551.19;5036853;28;20461;-68
2022/03/15 10:14:19;;;;;;;12.45;5.95;;;;;;;6.29;100.00;97533.31;5033882;28;20457;-69
2022/03/15 10:16:47;;;;;;;11.77;5.72;;;;;;;6.61;100.00;97535.88;5033243;28;20061;-69
2022/03/15 10:19:14;;;;;;;12.20;6.10;;;;;;;6.65;100.00;97528.69;5025287;28;20068;-67
2022/03/15 10:21:45;;;;;;;14.00;6.40;;;;;;;6.46;100.00;97523.56;5032657;28;20041;-68
2022/03/15 10:24:18;;;;;;;14.75;5.80;;;;;;;6.32;100.00;97513.63;5022445;28;20119;-68
2022/03/15 10:26:46;;;;;;;21.05;7.78;;;;;;;6.37;100.00;97498.25;5043894;28;20540;-69
2022/03/15 10:29:13;;;;;;;14.57;7.43;;;;;;;5.87;100.00;97480.41;5034086;28;20152;-66
2022/03/15 10:31:40;;;;;;;11.35;7.18;;;;;;;5.68;100.00;97473.31;5038718;28;20069;-68
2022/03/15 10:34:08;;;;;;;13.35;6.47;;;;;;;5.82;100.00;97466.97;5035298;28;20444;-69
2022/03/15 10:36:42;;;;;;;11.20;5.93;;;;;;;5.89;100.00;97451.78;5016643;28;20072;-68
2022/03/15 10:39:09;;;;;;;11.25;5.95;;;;;;;5.65;100.00;97454.13;5042616;28;20065;-70
2022/03/15 10:41:59;;;;;;;10.32;6.15;;;;;;;5.95;100.00;97447.00;5052637;28;20048;-70
2022/03/15 10:44:34;;;;;;;11.65;6.22;;;;;;;5.99;100.00;97439.81;5030342;28;20209;-69
2022/03/15 10:47:13;;;;;;;16.70;7.60;;;;;;;5.76;100.00;97436.41;5039253;28;20079;-69
2022/03/15 10:49:51;;;;;;;14.88;6.32;;;;;;;5.77;100.00;97435.28;5041412;28;20132;-69
2022/03/15 10:52:40;;;;;;;8.63;5.80;;;;;;;6.03;100.00;97429.13;5021813;28;20517;-69
2022/03/15 10:55:16;;;;;;;13.35;6.68;;;;;;;5.91;100.00;97410.69;5038947;28;20162;-68
2022/03/15 10:57:48;;;;;;;12.50;7.40;;;;;;;6.19;100.00;97427.50;5041213;28;20132;-68
2022/03/15 11:00:16;;;;;;;14.05;6.60;;;;;;;6.66;100.00;97411.31;5032888;28;20041;-67
2022/03/15 11:02:46;;;;;;;12.20;6.15;;;;;;;6.95;100.00;97412.53;5030163;28;20060;-67
2022/03/15 11:05:34;;;;;;;12.38;5.63;;;;;;;6.84;100.00;97401.19;5021410;28;20108;-68
2022/03/15 11:08:08;;;;;;;8.90;5.40;;;;;;;6.31;100.00;97392.31;5047839;28;20080;-69
2022/03/15 11:10:35;;;;;;;12.80;6.22;;;;;;;5.82;100.00;97385.41;5043789;28;20041;-69
2022/03/15 11:13:12;;;;;;;11.27;5.32;;;;;;;6.08;100.00;97394.41;5039562;28;20144;-68
2022/03/15 11:15:44;;;;;;;12.38;6.00;;;;;;;6.32;100.00;97380.31;5035476;28;20037;-69
2022/03/15 11:18:11;;;;;;;11.05;5.68;;;;;;;6.84;100.00;97386.75;5033977;28;20048;-68
2022/03/15 11:20:40;;;;;;;10.57;5.43;;;;;;;7.37;100.00;97371.00;5038609;28;20049;-65
2022/03/15 11:23:08;;;;;;;11.60;5.72;;;;;;;7.74;100.00;97361.16;5039076;28;20098;-65
2022/03/15 11:25:36;;;;;;;15.27;5.07;;;;;;;8.13;100.00;97355.56;5047772;28;20483;-67
2022/03/15 11:28:05;;;;;;;8.70;4.53;;;;;;;7.77;100.00;97344.13;5038684;28;20041;-70
2022/03/15 11:30:32;;;;;;;11.18;5.00;;;;;;;7.06;100.00;97339.44;5038789;28;20076;-70
2022/03/15 11:33:01;;;;;;;13.98;5.13;;;;;;;7.24;100.00;97324.59;5039254;28;20047;-69
2022/03/15 11:35:26;;;;;;;9.32;4.43;;;;;;;6.82;100.00;97320.94;5015094;28;20048;-69